createdAt,value
2018-12-11T00:00:30.122Z,0.40
2018-12-11T00:02:57.969Z,0.40
2018-12-11T00:05:25.760Z,0.50
2018-12-11T00:07:53.301Z,0.40
2018-12-11T00:10:20.834Z,0.40
2018-12-11T00:12:48.937Z,0.40
2018-12-11T00:15:16.974Z,0.30
2018-12-11T00:17:44.733Z,0.30
2018-12-11T00:20:12.543Z,0.20
2018-12-11T00:22:40.181Z,0.30
2018-12-11T00:25:07.851Z,0.30
2018-12-11T00:27:35.709Z,0.30
2018-12-11T00:30:04.063Z,0.30
2018-12-11T00:32:31.598Z,0.20
2018-12-11T00:34:59.178Z,0.30
2018-12-11T00:37:27.159Z,0.10
2018-12-11T00:39:54.843Z,0.10
2018-12-11T00:42:23.755Z,0.10
2018-12-11T00:44:51.288Z,0.00
2018-12-11T00:47:18.991Z,-0.10
2018-12-11T00:49:46.723Z,0.00
2018-12-11T00:52:14.275Z,0.00
2018-12-11T00:54:42.192Z,0.00
2018-12-11T00:57:09.803Z,-0.10
2018-12-11T00:59:37.506Z,-0.30
2018-12-11T01:02:05.557Z,-0.40
2018-12-11T01:04:33.179Z,-0.40
2018-12-11T01:07:00.954Z,-0.50
2018-12-11T01:09:28.495Z,-0.60
2018-12-11T01:11:56.081Z,-0.70
2018-12-11T01:14:23.723Z,-0.70
2018-12-11T01:16:51.261Z,-0.70
2018-12-11T01:19:18.839Z,-0.70
2018-12-11T01:21:46.381Z,-0.70
2018-12-11T01:24:13.924Z,-0.70
2018-12-11T01:26:41.658Z,-0.70
2018-12-11T01:29:09.298Z,-0.70
2018-12-11T01:31:36.889Z,-0.70
2018-12-11T01:34:05.023Z,-0.60
2018-12-11T01:36:32.561Z,-0.60
2018-12-11T01:39:00.099Z,-0.50
2018-12-11T01:41:27.674Z,-0.50
2018-12-11T01:43:55.936Z,-0.50
2018-12-11T01:46:23.469Z,-0.50
2018-12-11T01:48:51.419Z,-0.40
2018-12-11T01:51:19.050Z,-0.30
2018-12-11T01:53:46.866Z,-0.30
2018-12-11T01:56:14.487Z,-0.20
2018-12-11T01:58:42.974Z,-0.20
2018-12-11T02:01:10.513Z,-0.20
2018-12-11T02:03:38.182Z,-0.30
2018-12-11T02:06:05.827Z,-0.30
2018-12-11T02:08:33.360Z,-0.30
2018-12-11T02:11:01.166Z,-0.30
2018-12-11T02:13:28.705Z,-0.30
2018-12-11T02:15:56.248Z,-0.30
2018-12-11T02:18:23.846Z,-0.30
2018-12-11T02:20:51.586Z,-0.40
2018-12-11T02:23:19.224Z,-0.40
2018-12-11T02:25:46.835Z,-0.40
2018-12-11T02:28:14.524Z,-0.30
2018-12-11T02:30:42.386Z,-0.30
2018-12-11T02:33:10.109Z,-0.40
2018-12-11T02:35:37.651Z,-0.30
2018-12-11T02:38:05.372Z,-0.20
2018-12-11T02:40:33.246Z,-0.20
2018-12-11T02:43:00.800Z,-0.20
2018-12-11T02:45:28.346Z,-0.10
2018-12-11T02:47:56.070Z,-0.10
2018-12-11T02:50:23.607Z,-0.10
2018-12-11T02:52:51.163Z,-0.20
2018-12-11T02:55:18.765Z,-0.10
2018-12-11T02:57:46.467Z,-0.10
2018-12-11T03:00:14.012Z,-0.10
2018-12-11T03:02:41.646Z,-0.10
2018-12-11T03:05:09.301Z,-0.10
2018-12-11T03:07:36.831Z,-0.10
2018-12-11T03:10:05.796Z,-0.10
2018-12-11T03:12:33.369Z,-0.10
2018-12-11T03:15:00.898Z,-0.20
2018-12-11T03:17:28.822Z,-0.20
2018-12-11T03:19:56.470Z,-0.30
2018-12-11T03:22:24.000Z,-0.40
2018-12-11T03:24:51.578Z,-0.50
2018-12-11T03:27:19.115Z,-0.40
2018-12-11T03:29:46.657Z,-0.40
2018-12-11T03:32:14.325Z,-0.40
2018-12-11T03:34:41.879Z,-0.30
2018-12-11T03:37:09.415Z,-0.40
2018-12-11T03:39:37.218Z,-0.40
2018-12-11T03:42:04.758Z,-0.50
2018-12-11T03:44:32.297Z,-0.50
2018-12-11T03:46:59.926Z,-0.50
2018-12-11T03:49:27.467Z,-0.50
2018-12-11T03:51:55.013Z,-0.40
2018-12-11T03:54:22.586Z,-0.40
2018-12-11T03:56:50.122Z,-0.40
2018-12-11T03:59:17.817Z,-0.50
2018-12-11T04:01:45.405Z,-0.50
2018-12-11T04:04:12.981Z,-0.50
2018-12-11T04:06:40.518Z,-0.50
2018-12-11T04:09:08.111Z,-0.50
2018-12-11T04:11:35.646Z,-0.50
2018-12-11T04:14:03.241Z,-0.50
2018-12-11T04:16:30.815Z,-0.50
2018-12-11T04:18:58.351Z,-0.60
2018-12-11T04:21:25.902Z,-0.60
2018-12-11T04:23:53.594Z,-0.60
2018-12-11T04:26:21.134Z,-0.60
2018-12-11T04:28:48.662Z,-0.60
2018-12-11T04:31:16.227Z,-0.60
2018-12-11T04:33:43.831Z,-0.40
2018-12-11T04:36:11.362Z,-0.40
2018-12-11T04:38:38.945Z,-0.50
2018-12-11T04:41:06.514Z,-0.40
2018-12-11T04:43:34.048Z,-0.30
2018-12-11T04:46:01.946Z,-0.30
2018-12-11T04:48:29.663Z,-0.30
2018-12-11T04:50:57.194Z,-0.40
2018-12-11T04:53:25.301Z,-0.30
2018-12-11T04:55:52.834Z,-0.30
2018-12-11T04:58:20.379Z,-0.40
2018-12-11T05:00:47.946Z,-0.60
2018-12-11T05:03:15.476Z,-0.70
2018-12-11T05:05:43.057Z,-0.70
2018-12-11T05:08:14.861Z,-0.80
2018-12-11T05:10:42.412Z,-0.90
2018-12-11T05:13:09.939Z,-1.00
2018-12-11T05:15:37.780Z,-0.90
2018-12-11T05:18:05.384Z,-1.00
2018-12-11T05:20:33.233Z,-1.10
2018-12-11T05:23:00.801Z,-1.20
2018-12-11T05:25:28.338Z,-1.30
2018-12-11T05:27:55.874Z,-1.20
2018-12-11T05:30:23.450Z,-1.30
2018-12-11T05:32:50.982Z,-1.30
2018-12-11T05:35:19.421Z,-1.40
2018-12-11T05:37:47.125Z,-1.30
2018-12-11T05:40:14.773Z,-1.30
2018-12-11T05:42:42.310Z,-1.30
2018-12-11T05:45:09.954Z,-1.40
2018-12-11T05:47:37.488Z,-1.50
2018-12-11T05:50:05.436Z,-1.50
2018-12-11T05:52:33.014Z,-1.40
2018-12-11T05:55:00.553Z,-1.40
2018-12-11T05:57:28.336Z,-1.40
2018-12-11T05:59:55.926Z,-1.40
2018-12-11T06:02:23.480Z,-1.30
2018-12-11T06:04:51.018Z,-1.30
2018-12-11T06:07:18.595Z,-1.30
2018-12-11T06:09:47.162Z,-1.30
2018-12-11T06:12:14.921Z,-1.20
2018-12-11T06:14:42.505Z,-1.20
2018-12-11T06:17:10.048Z,-1.20
2018-12-11T06:19:37.590Z,-1.00
2018-12-11T06:22:05.426Z,-1.00
2018-12-11T06:24:32.969Z,-0.90
2018-12-11T06:27:00.515Z,-0.80
2018-12-11T06:29:28.245Z,-0.80
2018-12-11T06:31:55.794Z,-0.70
2018-12-11T06:34:23.593Z,-0.70
2018-12-11T06:36:51.599Z,-0.60
2018-12-11T06:39:19.630Z,-0.60
2018-12-11T06:41:47.166Z,-0.50
2018-12-11T06:44:14.823Z,-0.50
2018-12-11T06:46:42.362Z,-0.40
2018-12-11T06:49:10.086Z,-0.30
2018-12-11T06:51:37.931Z,-0.30
2018-12-11T06:54:05.761Z,-0.20
2018-12-11T06:56:33.302Z,-0.20
2018-12-11T06:59:00.879Z,-0.20
2018-12-11T07:01:28.549Z,-0.10
2018-12-11T07:03:56.082Z,0.00
2018-12-11T07:06:24.097Z,0.00
2018-12-11T07:08:51.626Z,0.10
2018-12-11T07:11:19.165Z,0.20
2018-12-11T07:13:46.750Z,0.20
2018-12-11T07:16:14.328Z,0.20
2018-12-11T07:18:41.954Z,0.20
2018-12-11T07:21:09.894Z,0.30
2018-12-11T07:23:37.982Z,0.40
2018-12-11T07:26:05.514Z,0.40
2018-12-11T07:28:33.066Z,0.40
2018-12-11T07:31:00.753Z,0.40
2018-12-11T07:33:28.287Z,0.50
2018-12-11T07:35:55.857Z,0.50
2018-12-11T07:38:23.679Z,0.50
2018-12-11T07:40:51.515Z,0.50
2018-12-11T07:43:19.205Z,0.50
2018-12-11T07:45:46.972Z,0.60
2018-12-11T07:48:14.515Z,0.70
2018-12-11T07:50:42.187Z,0.80
2018-12-11T07:53:10.173Z,0.90
2018-12-11T07:55:37.993Z,0.90
2018-12-11T07:58:05.776Z,1.00
2018-12-11T08:00:33.338Z,0.90
2018-12-11T08:03:00.899Z,1.00
2018-12-11T08:05:28.771Z,1.00
2018-12-11T08:07:56.686Z,1.00
2018-12-11T08:10:24.528Z,0.90
2018-12-11T08:12:52.686Z,1.00
2018-12-11T08:15:20.416Z,1.00
2018-12-11T08:17:47.951Z,1.00
2018-12-11T08:20:15.561Z,1.10
2018-12-11T08:22:43.701Z,1.20
2018-12-11T08:25:11.591Z,1.20
2018-12-11T08:27:39.124Z,1.10
2018-12-11T08:30:07.107Z,1.10
2018-12-11T08:32:34.651Z,1.30
2018-12-11T08:35:02.290Z,1.60
2018-12-11T08:37:30.139Z,1.50
2018-12-11T08:39:57.897Z,1.70
2018-12-11T08:42:25.772Z,1.60
2018-12-11T08:44:54.351Z,1.60
2018-12-11T08:47:22.515Z,1.60
2018-12-11T08:49:50.067Z,1.40
2018-12-11T08:52:18.428Z,1.50
2018-12-11T08:54:46.170Z,1.40
2018-12-11T08:57:13.925Z,1.70
2018-12-11T08:59:42.656Z,1.80
2018-12-11T09:02:10.392Z,2.10
2018-12-11T09:04:38.437Z,2.10
2018-12-11T09:07:07.710Z,2.20
2018-12-11T09:09:35.529Z,2.40
2018-12-11T09:12:03.393Z,2.80
2018-12-11T09:14:31.602Z,3.00
2018-12-11T09:16:59.138Z,2.90
2018-12-11T09:19:26.886Z,3.00
2018-12-11T09:21:54.930Z,2.80
2018-12-11T09:24:22.933Z,2.80
2018-12-11T09:26:50.984Z,2.40
2018-12-11T09:29:19.016Z,2.40
2018-12-11T09:31:46.935Z,2.50
2018-12-11T09:34:16.008Z,2.40
2018-12-11T09:36:43.791Z,2.70
2018-12-11T09:39:11.339Z,2.80
2018-12-11T09:41:38.871Z,3.00
2018-12-11T09:44:06.555Z,3.20
2018-12-11T09:46:34.123Z,3.00
2018-12-11T09:49:01.788Z,2.80
2018-12-11T09:51:29.378Z,2.80
2018-12-11T09:53:57.106Z,2.80
2018-12-11T09:56:24.675Z,2.80
2018-12-11T09:58:52.430Z,2.90
2018-12-11T10:01:19.962Z,2.80
2018-12-11T10:03:47.516Z,2.60
2018-12-11T10:06:15.279Z,2.50
2018-12-11T10:08:43.478Z,2.70
2018-12-11T10:11:11.355Z,2.80
2018-12-11T10:13:38.974Z,3.00
2018-12-11T10:16:06.509Z,3.00
2018-12-11T10:18:34.245Z,3.10
2018-12-11T10:21:02.406Z,3.00
2018-12-11T10:23:31.941Z,3.00
2018-12-11T10:26:00.584Z,3.20
2018-12-11T10:28:28.975Z,3.30
2018-12-11T10:30:56.605Z,3.10
2018-12-11T10:33:24.277Z,3.30
2018-12-11T10:35:52.102Z,3.00
2018-12-11T10:38:19.821Z,3.10
2018-12-11T10:40:47.373Z,3.10
2018-12-11T10:43:15.132Z,3.30
2018-12-11T10:45:42.814Z,3.10
2018-12-11T10:48:10.359Z,3.20
2018-12-11T10:50:39.040Z,3.40
2018-12-11T10:53:07.295Z,3.40
2018-12-11T10:55:34.842Z,3.40
2018-12-11T10:58:02.822Z,3.40
2018-12-11T11:03:41.018Z,3.10
2018-12-11T11:06:08.722Z,2.90
2018-12-11T11:08:36.251Z,2.60
2018-12-11T11:11:03.860Z,2.70
2018-12-11T11:13:31.606Z,2.70
2018-12-11T11:15:59.152Z,2.40
2018-12-11T11:18:27.016Z,2.40
2018-12-11T11:20:54.564Z,2.30
2018-12-11T11:23:22.116Z,2.40
2018-12-11T11:25:49.912Z,2.30
2018-12-11T11:28:17.674Z,2.40
2018-12-11T11:30:45.223Z,2.40
2018-12-11T11:33:12.795Z,2.50
2018-12-11T11:35:40.467Z,2.50
2018-12-11T11:38:09.283Z,2.50
2018-12-11T11:40:36.850Z,2.70
2018-12-11T11:43:04.387Z,2.90
2018-12-11T11:45:31.941Z,2.90
2018-12-11T11:48:00.094Z,3.00
2018-12-11T11:50:28.090Z,2.80
2018-12-11T11:52:55.763Z,2.90
2018-12-11T11:55:23.338Z,2.90
2018-12-11T11:57:51.182Z,2.80
2018-12-11T12:00:18.826Z,2.80
2018-12-11T12:02:46.721Z,2.80
2018-12-11T12:05:14.661Z,2.70
2018-12-11T12:07:42.204Z,2.70
2018-12-11T12:10:09.785Z,2.40
2018-12-11T12:12:37.536Z,2.20
2018-12-11T12:15:06.474Z,2.10
2018-12-11T12:17:34.039Z,2.30
2018-12-11T12:20:01.630Z,2.20
2018-12-11T12:22:29.571Z,2.40
2018-12-11T12:24:57.661Z,2.20
2018-12-11T12:27:25.198Z,2.30
2018-12-11T12:29:53.272Z,2.20
2018-12-11T12:32:21.106Z,2.40
2018-12-11T12:34:48.736Z,2.40
2018-12-11T12:37:16.556Z,2.50
2018-12-11T12:39:44.731Z,2.40
2018-12-11T12:42:12.491Z,2.40
2018-12-11T12:44:40.040Z,2.40
2018-12-11T12:47:07.688Z,2.60
2018-12-11T12:49:35.524Z,2.50
2018-12-11T12:52:03.427Z,2.20
2018-12-11T12:54:31.483Z,2.40
2018-12-11T12:56:59.024Z,2.20
2018-12-11T12:59:26.568Z,2.20
2018-12-11T13:01:54.549Z,2.10
2018-12-11T13:04:22.082Z,2.00
2018-12-11T13:06:49.862Z,2.10
2018-12-11T13:09:17.483Z,2.10
2018-12-11T13:11:45.010Z,2.10
2018-12-11T13:14:12.741Z,1.80
2018-12-11T13:16:40.328Z,1.80
2018-12-11T13:19:07.878Z,1.80
2018-12-11T13:21:35.415Z,1.90
2018-12-11T13:24:03.401Z,1.90
2018-12-11T13:26:30.942Z,1.90
2018-12-11T13:28:58.672Z,1.90
2018-12-11T13:31:26.440Z,1.80
2018-12-11T13:33:54.256Z,1.80
2018-12-11T13:36:21.949Z,1.80
2018-12-11T13:38:49.657Z,1.90
2018-12-11T13:41:17.576Z,1.80
2018-12-11T13:43:45.363Z,1.70
2018-12-11T13:46:12.934Z,1.70
2018-12-11T13:48:40.491Z,1.70
2018-12-11T13:51:08.338Z,1.80
2018-12-11T13:53:36.234Z,1.70
2018-12-11T13:56:04.279Z,1.70
2018-12-11T13:58:31.822Z,1.60
2018-12-11T14:00:59.883Z,1.60
2018-12-11T14:03:27.569Z,1.70
2018-12-11T14:05:55.141Z,1.60
2018-12-11T14:08:23.382Z,1.50
2018-12-11T14:10:50.967Z,1.40
2018-12-11T14:13:19.031Z,1.30
2018-12-11T14:15:46.984Z,1.40
2018-12-11T14:18:14.685Z,1.40
2018-12-11T14:20:42.222Z,1.40
2018-12-11T14:23:10.197Z,1.40
2018-12-11T14:25:37.936Z,1.50
2018-12-11T14:28:05.663Z,1.40
2018-12-11T14:30:33.380Z,1.40
2018-12-11T14:33:01.292Z,1.50
2018-12-11T14:35:29.105Z,1.50
2018-12-11T14:37:56.911Z,1.40
2018-12-11T14:40:24.594Z,1.30
2018-12-11T14:42:52.598Z,1.30
2018-12-11T14:45:20.475Z,1.30
2018-12-11T14:47:48.378Z,1.30
2018-12-11T14:50:16.093Z,1.30
2018-12-11T14:52:44.074Z,1.30
2018-12-11T14:55:11.993Z,1.30
2018-12-11T14:57:39.822Z,1.30
2018-12-11T15:00:08.530Z,1.20
2018-12-11T15:02:36.278Z,1.30
2018-12-11T15:05:04.991Z,1.20
2018-12-11T15:07:32.974Z,1.20
2018-12-11T15:10:00.859Z,1.10
2018-12-11T15:12:28.872Z,1.10
2018-12-11T15:14:56.454Z,1.10
2018-12-11T15:17:24.178Z,1.10
2018-12-11T15:19:51.843Z,1.10
2018-12-11T15:22:19.487Z,1.10
2018-12-11T15:24:47.056Z,1.10
2018-12-11T15:27:14.821Z,1.00
2018-12-11T15:29:42.454Z,1.00
2018-12-11T15:32:10.321Z,1.00
2018-12-11T15:34:38.083Z,1.10
2018-12-11T15:37:05.851Z,1.00
2018-12-11T15:39:35.976Z,0.90
2018-12-11T15:42:03.931Z,1.00
2018-12-11T15:44:31.610Z,1.00
2018-12-11T15:46:59.172Z,0.90
2018-12-11T15:49:27.020Z,0.90
2018-12-11T15:51:55.051Z,0.90
2018-12-11T15:54:22.730Z,1.00
2018-12-11T15:56:50.720Z,1.00
2018-12-11T15:59:19.093Z,1.00
2018-12-11T16:01:46.639Z,0.90
2018-12-11T16:04:14.823Z,1.00
2018-12-11T16:06:42.484Z,0.90
2018-12-11T16:09:10.873Z,1.00
2018-12-11T16:11:38.669Z,1.00
2018-12-11T16:14:06.505Z,1.00
2018-12-11T16:16:34.334Z,1.00
2018-12-11T16:19:02.113Z,1.00
2018-12-11T16:21:30.776Z,1.00
2018-12-11T16:24:02.457Z,1.00
2018-12-11T16:26:30.128Z,1.00
2018-12-11T16:28:58.580Z,0.90
2018-12-11T16:31:26.376Z,1.00
2018-12-11T16:33:54.155Z,1.00
2018-12-11T16:36:21.896Z,1.00
2018-12-11T16:38:49.681Z,0.90
2018-12-11T16:41:17.522Z,1.00
2018-12-11T16:43:45.406Z,1.00
2018-12-11T16:46:13.287Z,0.90
2018-12-11T16:48:41.102Z,0.90
2018-12-11T16:51:09.614Z,1.00
2018-12-11T16:53:37.894Z,1.00
2018-12-11T16:56:05.812Z,1.00
2018-12-11T16:58:33.399Z,1.00
2018-12-11T17:01:00.952Z,1.10
2018-12-11T17:03:28.502Z,1.10
2018-12-11T17:05:56.493Z,1.10
2018-12-11T17:08:24.417Z,1.00
2018-12-11T17:10:52.174Z,1.00
2018-12-11T17:13:20.274Z,1.00
2018-12-11T17:15:48.760Z,1.00
2018-12-11T17:18:16.984Z,1.00
2018-12-11T17:20:45.878Z,1.10
2018-12-11T17:23:13.795Z,1.00
2018-12-11T17:25:41.400Z,0.90
2018-12-11T17:28:09.324Z,0.90
2018-12-11T17:30:37.116Z,1.00
2018-12-11T17:33:04.806Z,1.00
2018-12-11T17:35:32.722Z,1.00
2018-12-11T17:38:00.465Z,1.00
2018-12-11T17:40:28.269Z,1.00
2018-12-11T17:42:55.850Z,1.00
2018-12-11T17:45:26.896Z,1.00
2018-12-11T17:47:57.688Z,1.00
2018-12-11T17:50:25.768Z,1.10
2018-12-11T17:52:53.896Z,1.00
2018-12-11T17:55:21.678Z,1.00
2018-12-11T17:57:49.238Z,1.00
2018-12-11T18:00:17.011Z,1.10
2018-12-11T18:02:44.723Z,1.10
2018-12-11T18:05:12.740Z,1.10
2018-12-11T18:07:41.909Z,1.00
2018-12-11T18:10:10.357Z,0.90
2018-12-11T18:12:37.967Z,1.00
2018-12-11T18:15:05.844Z,1.00
2018-12-11T18:17:34.184Z,1.00
2018-12-11T18:20:01.991Z,0.90
2018-12-11T18:22:29.845Z,1.00
2018-12-11T18:24:57.443Z,1.00
2018-12-11T18:27:28.606Z,1.00
2018-12-11T18:29:56.568Z,1.00
2018-12-11T18:32:25.160Z,0.90
2018-12-11T18:34:55.880Z,0.90
2018-12-11T18:37:23.998Z,1.00
2018-12-11T18:39:51.988Z,1.00
2018-12-11T18:42:19.528Z,0.90
2018-12-11T18:44:49.572Z,0.90
2018-12-11T18:47:17.408Z,0.90
2018-12-11T18:49:45.485Z,1.00
2018-12-11T18:52:13.164Z,0.90
2018-12-11T18:54:42.139Z,1.00
2018-12-11T18:57:09.925Z,0.90
2018-12-11T18:59:37.651Z,1.00
2018-12-11T19:02:05.642Z,1.00
2018-12-11T19:04:33.792Z,1.00
2018-12-11T19:07:01.667Z,1.00
2018-12-11T19:09:29.601Z,1.00
2018-12-11T19:11:57.159Z,0.90
2018-12-11T19:14:25.138Z,0.90
2018-12-11T19:16:52.825Z,0.90
2018-12-11T19:19:20.637Z,1.00
2018-12-11T19:21:48.852Z,0.90
2018-12-11T19:24:16.566Z,0.90
2018-12-11T19:26:44.406Z,0.90
2018-12-11T19:29:12.286Z,0.90
2018-12-11T19:31:39.827Z,0.90
2018-12-11T19:34:07.561Z,0.90
2018-12-11T19:36:35.642Z,0.90
2018-12-11T19:39:05.573Z,0.90
2018-12-11T19:41:33.472Z,0.80
2018-12-11T19:44:01.920Z,0.90
2018-12-11T19:46:31.542Z,1.00
2018-12-11T19:49:00.400Z,0.90
2018-12-11T19:51:29.310Z,0.90
2018-12-11T19:53:58.308Z,0.90
2018-12-11T19:56:28.524Z,0.90
2018-12-11T19:58:58.061Z,0.90
2018-12-11T20:01:27.269Z,0.90
2018-12-11T20:03:54.964Z,0.80
2018-12-11T20:06:23.507Z,0.80
2018-12-11T20:08:51.309Z,0.80
2018-12-11T20:11:19.070Z,0.90
2018-12-11T20:13:46.922Z,0.80
2018-12-11T20:16:14.587Z,0.90
2018-12-11T20:18:43.122Z,0.80
2018-12-11T20:21:10.713Z,0.80
2018-12-11T20:23:38.493Z,0.80
2018-12-11T20:26:07.331Z,0.70
2018-12-11T20:28:36.696Z,0.80
2018-12-11T20:31:04.892Z,0.80
2018-12-11T20:33:32.597Z,0.70
2018-12-11T20:36:00.774Z,0.80
2018-12-11T20:38:28.323Z,0.80
2018-12-11T20:40:57.841Z,0.90
2018-12-11T20:43:26.296Z,0.80
2018-12-11T20:45:54.096Z,0.70
2018-12-11T20:48:22.803Z,0.70
2018-12-11T20:50:50.413Z,0.80
2018-12-11T20:53:18.512Z,0.80
2018-12-11T20:55:46.373Z,0.80
2018-12-11T20:58:13.958Z,0.80
2018-12-11T21:00:41.591Z,0.70
2018-12-11T21:03:09.552Z,0.80
2018-12-11T21:05:37.122Z,0.80
2018-12-11T21:08:04.669Z,0.80
2018-12-11T21:10:32.443Z,0.80
2018-12-11T21:12:59.980Z,0.80
2018-12-11T21:15:27.518Z,0.70
2018-12-11T21:17:55.282Z,0.80
2018-12-11T21:20:24.152Z,0.80
2018-12-11T21:22:51.693Z,0.80
2018-12-11T21:25:19.566Z,0.80
2018-12-11T21:27:47.417Z,0.80
2018-12-11T21:30:17.317Z,0.80
2018-12-11T21:32:44.981Z,0.70
2018-12-11T21:35:12.837Z,0.70
2018-12-11T21:37:40.536Z,0.70
2018-12-11T21:40:08.134Z,0.70
2018-12-11T21:42:35.890Z,0.70
2018-12-11T21:45:05.222Z,0.70
2018-12-11T21:47:33.256Z,0.70
2018-12-11T21:50:01.589Z,0.80
2018-12-11T21:52:29.409Z,0.80
2018-12-11T21:54:57.611Z,0.80
2018-12-11T21:57:25.157Z,0.80
2018-12-11T21:59:52.698Z,0.80
2018-12-11T22:02:20.308Z,0.80
2018-12-11T22:04:48.069Z,0.70
2018-12-11T22:07:16.032Z,0.70
2018-12-11T22:09:44.415Z,0.80
2018-12-11T22:12:12.601Z,0.80
2018-12-11T22:14:40.146Z,0.80
2018-12-11T22:17:07.727Z,0.80
2018-12-11T22:19:35.621Z,0.70
2018-12-11T22:22:03.160Z,0.70
2018-12-11T22:24:31.173Z,0.70
2018-12-11T22:26:58.714Z,0.70
2018-12-11T22:29:26.672Z,0.70
2018-12-11T22:32:02.926Z,0.70
2018-12-11T22:34:30.848Z,0.70
2018-12-11T22:36:58.395Z,0.70
2018-12-11T22:39:26.458Z,0.70
2018-12-11T22:41:54.626Z,0.80
2018-12-11T22:44:22.419Z,0.80
2018-12-11T22:46:54.867Z,0.70
2018-12-11T22:49:23.647Z,0.70
2018-12-11T22:51:51.808Z,0.70
2018-12-11T22:54:20.510Z,0.70
2018-12-11T22:56:49.401Z,0.60
2018-12-11T22:59:17.895Z,0.70
2018-12-11T23:01:45.810Z,0.70
2018-12-11T23:04:13.624Z,0.70
2018-12-11T23:06:42.240Z,0.60
2018-12-11T23:09:12.961Z,0.70
2018-12-11T23:11:40.823Z,0.70
2018-12-11T23:14:08.374Z,0.60
2018-12-11T23:16:36.733Z,0.60
2018-12-11T23:19:04.283Z,0.60
2018-12-11T23:21:32.719Z,0.60
2018-12-11T23:24:00.300Z,0.60
2018-12-11T23:26:28.094Z,0.70
2018-12-11T23:28:55.933Z,0.70
2018-12-11T23:31:23.570Z,0.70
2018-12-11T23:33:51.122Z,0.60
2018-12-11T23:36:18.763Z,0.70
2018-12-11T23:38:46.399Z,0.70
2018-12-11T23:41:14.071Z,0.70
2018-12-11T23:43:41.777Z,0.70
2018-12-11T23:46:09.434Z,0.70
2018-12-11T23:48:37.168Z,0.70
2018-12-11T23:51:05.795Z,0.70
2018-12-11T23:53:33.580Z,0.70
2018-12-11T23:56:01.263Z,0.70
2018-12-11T23:58:29.075Z,0.60
